createdAt,value
2018-04-15T00:00:03.608Z,1015.54
2018-04-15T00:05:02.915Z,1015.99
2018-04-15T00:10:03.594Z,1015.74
2018-04-15T00:15:03.213Z,1015.63
2018-04-15T00:20:02.872Z,1015.66
2018-04-15T00:25:03.520Z,1015.52
2018-04-15T00:30:03.221Z,1015.43
2018-04-15T00:35:03.023Z,1015.33
2018-04-15T00:40:03.681Z,1015.28
2018-04-15T00:45:03.270Z,1015.21
2018-04-15T00:50:02.875Z,1015.17
2018-04-15T00:55:03.396Z,1015.15
2018-04-15T01:00:03.028Z,1015.01
2018-04-15T01:05:03.638Z,1014.92
2018-04-15T01:10:03.330Z,1014.85
2018-04-15T01:15:02.885Z,1014.79
2018-04-15T01:20:03.519Z,1014.65
2018-04-15T01:25:03.143Z,1014.63
2018-04-15T01:30:02.724Z,1014.54
2018-04-15T01:35:03.312Z,1014.52
2018-04-15T01:40:03.004Z,1014.34
2018-04-15T01:45:03.570Z,1014.3
2018-04-15T01:50:03.185Z,1014.29
2018-04-15T01:55:02.872Z,1014.22
2018-04-15T02:00:03.458Z,1014.26
2018-04-15T02:05:03.069Z,1014.16
2018-04-15T02:10:02.699Z,1014.16
2018-04-15T02:15:03.375Z,1014.17
2018-04-15T02:20:03.026Z,1014.16
2018-04-15T02:25:03.581Z,1014.05
2018-04-15T02:30:03.160Z,1014.03
2018-04-15T02:35:02.798Z,1014.04
2018-04-15T02:40:03.414Z,1014
2018-04-15T02:45:02.974Z,1013.88
2018-04-15T02:55:03.137Z,1013.88
2018-04-15T03:00:03.968Z,1013.85
2018-04-15T03:05:03.617Z,1013.79
2018-04-15T03:10:03.264Z,1013.76
2018-04-15T03:15:02.915Z,1013.72
2018-04-15T03:20:03.511Z,1013.82
2018-04-15T03:25:03.031Z,1013.74
2018-04-15T03:30:03.623Z,1013.75
2018-04-15T03:35:03.253Z,1013.78
2018-04-15T03:40:03.032Z,1013.77
2018-04-15T03:45:03.560Z,1013.75
2018-04-15T03:50:03.166Z,1013.7
2018-04-15T03:55:02.859Z,1013.68
2018-04-15T04:00:03.596Z,1013.65
2018-04-15T04:05:03.132Z,1013.68
2018-04-15T04:10:02.897Z,1013.69
2018-04-15T04:15:03.521Z,1013.7
2018-04-15T04:20:03.134Z,1013.71
2018-04-15T04:25:03.874Z,1013.71
2018-04-15T04:30:03.056Z,1013.67
2018-04-15T04:35:02.753Z,1013.62
2018-04-15T04:40:03.455Z,1013.62
2018-04-15T04:45:03.300Z,1013.53
2018-04-15T04:50:02.883Z,1013.47
2018-04-15T04:55:03.504Z,1013.53
2018-04-15T05:00:03.117Z,1013.49
2018-04-15T05:05:02.747Z,1013.46
2018-04-15T05:10:03.402Z,1013.5
2018-04-15T05:15:03.186Z,1013.47
2018-04-15T05:20:02.778Z,1013.5
2018-04-15T05:25:03.353Z,1013.5
2018-04-15T05:30:02.972Z,1013.52
2018-04-15T05:35:03.581Z,1013.45
2018-04-15T05:40:03.139Z,1013.59
2018-04-15T05:45:03.691Z,1013.46
2018-04-15T05:50:03.197Z,1013.5
2018-04-15T05:55:03.006Z,1013.41
2018-04-15T06:00:03.761Z,1013.36
2018-04-15T06:05:03.374Z,1013.42
2018-04-15T06:10:03.030Z,1013.45
2018-04-15T06:15:03.607Z,1013.29
2018-04-15T06:20:03.259Z,1013.21
2018-04-15T06:25:02.793Z,1013.24
2018-04-15T06:30:03.496Z,1013.15
2018-04-15T06:35:03.055Z,1013.13
2018-04-15T06:40:02.903Z,1013.18
2018-04-15T06:45:03.434Z,1013.11
2018-04-15T06:50:03.023Z,1013.09
2018-04-15T06:55:03.534Z,1013.12
2018-04-15T07:00:03.181Z,1013.05
2018-04-15T07:05:02.753Z,1013.02
2018-04-15T07:10:03.394Z,1012.96
2018-04-15T07:15:03.017Z,1012.93
2018-04-15T07:20:03.588Z,1012.92
2018-04-15T07:25:03.206Z,1012.82
2018-04-15T07:30:02.808Z,1012.7
2018-04-15T07:35:03.476Z,1012.69
2018-04-15T07:40:03.058Z,1012.7
2018-04-15T07:45:03.787Z,1012.68
2018-04-15T07:50:03.488Z,1012.64
2018-04-15T07:55:03.160Z,1012.61
2018-04-15T08:00:03.691Z,1012.57
2018-04-15T08:05:03.322Z,1012.54
2018-04-15T08:10:03.011Z,1012.49
2018-04-15T08:15:03.608Z,1012.48
2018-04-15T08:20:03.276Z,1012.48
2018-04-15T08:25:02.837Z,1012.37
2018-04-15T08:30:03.388Z,1012.39
2018-04-15T08:35:03.108Z,1012.38
2018-04-15T08:40:02.802Z,1012.32
2018-04-15T08:45:03.385Z,1012.34
2018-04-15T08:50:02.951Z,1012.26
2018-04-15T08:55:03.535Z,1012.3
2018-04-15T09:00:03.178Z,1012.15
2018-04-15T09:05:02.867Z,1012.08
2018-04-15T09:10:03.552Z,1012.02
2018-04-15T09:15:03.219Z,1012.01
2018-04-15T09:20:02.881Z,1011.94
2018-04-15T09:25:03.467Z,1011.87
2018-04-15T09:30:03.149Z,1011.92
2018-04-15T09:35:02.834Z,1011.99
2018-04-15T09:40:03.432Z,1011.85
2018-04-15T09:45:03.022Z,1011.85
2018-04-15T09:50:02.715Z,1011.84
2018-04-15T09:55:03.289Z,1011.89
2018-04-15T10:00:02.967Z,1011.9
2018-04-15T10:05:03.502Z,1011.84
2018-04-15T10:10:03.211Z,1011.81
2018-04-15T10:15:02.907Z,1011.74
2018-04-15T10:20:03.534Z,1011.71
2018-04-15T10:25:03.201Z,1011.59
2018-04-15T10:30:02.973Z,1011.68
2018-04-15T10:35:03.603Z,1011.58
2018-04-15T10:40:03.396Z,1011.56
2018-04-15T10:45:03.052Z,1011.48
2018-04-15T10:50:03.649Z,1011.26
2018-04-15T10:55:03.289Z,1011.28
2018-04-15T11:00:03.095Z,1011.22
2018-04-15T11:05:03.738Z,1011.21
2018-04-15T11:10:03.420Z,1011.25
2018-04-15T11:15:03.080Z,1011.26
2018-04-15T11:20:03.923Z,1011.17
2018-04-15T11:25:03.610Z,1011.22
2018-04-15T11:30:03.283Z,1011.08
2018-04-15T11:35:02.917Z,1011.1
2018-04-15T11:40:03.530Z,1011.06
2018-04-15T11:45:03.108Z,1011.1
2018-04-15T11:50:02.756Z,1011.06
2018-04-15T11:55:03.550Z,1010.93
2018-04-15T12:00:03.186Z,1010.89
2018-04-15T12:05:02.896Z,1010.88
2018-04-15T12:10:03.538Z,1010.83
2018-04-15T12:15:03.166Z,1010.78
2018-04-15T12:20:02.937Z,1010.75
2018-04-15T12:25:03.598Z,1010.76
2018-04-15T12:30:03.428Z,1010.7
2018-04-15T12:35:03.092Z,1010.6
2018-04-15T12:40:02.771Z,1010.61
2018-04-15T12:45:03.354Z,1010.53
2018-04-15T12:50:02.913Z,1010.51
2018-04-15T12:55:03.510Z,1010.36
2018-04-15T13:00:03.095Z,1010.34
2018-04-15T13:05:02.857Z,1010.43
2018-04-15T13:10:03.735Z,1010.36
2018-04-15T13:15:03.321Z,1010.23
2018-04-15T13:20:02.881Z,1010.26
2018-04-15T13:25:03.477Z,1010.23
2018-04-15T13:30:03.060Z,1010.15
2018-04-15T13:35:02.701Z,1010.08
2018-04-15T13:40:03.384Z,1010.02
2018-04-15T13:45:02.978Z,1009.91
2018-04-15T13:50:03.554Z,1009.89
2018-04-15T13:55:03.112Z,1009.92
2018-04-15T14:00:03.672Z,1009.86
2018-04-15T14:05:03.231Z,1009.88
2018-04-15T14:10:02.883Z,1009.76
2018-04-15T14:15:03.458Z,1009.69
2018-04-15T14:20:03.063Z,1009.62
2018-04-15T14:25:03.670Z,1009.66
2018-04-15T14:30:03.316Z,1009.67
2018-04-15T14:35:02.860Z,1009.65
2018-04-15T14:40:03.595Z,1009.62
2018-04-15T14:45:03.356Z,1009.66
2018-04-15T14:50:03.264Z,1009.6
2018-04-15T14:55:02.907Z,1009.53
2018-04-15T15:00:03.596Z,1009.46
2018-04-15T15:05:03.364Z,1009.39
2018-04-15T15:10:03.075Z,1009.4
2018-04-15T15:15:02.997Z,1009.45
2018-04-15T15:20:03.613Z,1009.4
2018-04-15T15:25:03.371Z,1009.28
2018-04-15T15:30:03.044Z,1009.24
2018-04-15T15:35:03.640Z,1009.24
2018-04-15T15:40:03.458Z,1009.17
2018-04-15T15:45:03.100Z,1009.08
2018-04-15T15:50:02.744Z,1009.11
2018-04-15T15:55:03.482Z,1009.07
2018-04-15T16:00:03.107Z,1009.1
2018-04-15T16:05:03.701Z,1009.08
2018-04-15T16:10:03.476Z,1009.11
2018-04-15T16:15:03.123Z,1009.11
2018-04-15T16:20:02.784Z,1009.13
2018-04-15T16:30:02.919Z,1009.22
2018-04-15T16:35:03.600Z,1009.23
2018-04-15T16:40:03.364Z,1009.17
2018-04-15T16:45:02.977Z,1009.27
2018-04-15T16:50:03.557Z,1009.25
2018-04-15T16:55:03.223Z,1009.22
2018-04-15T17:00:03.417Z,1009.29
2018-04-15T17:05:03.109Z,1009.36
2018-04-15T17:10:02.818Z,1009.27
2018-04-15T17:15:03.488Z,1009.32
2018-04-15T17:20:03.077Z,1009.37
2018-04-15T17:25:03.686Z,1009.33
2018-04-15T17:30:03.248Z,1009.4
2018-04-15T17:35:02.959Z,1009.37
2018-04-15T17:40:03.544Z,1009.33
2018-04-15T17:45:03.111Z,1009.34
2018-04-15T17:50:03.797Z,1009.33
2018-04-15T17:55:03.672Z,1009.36
2018-04-15T18:00:03.341Z,1009.35
2018-04-15T18:05:03.005Z,1009.39
2018-04-15T18:10:03.693Z,1009.45
2018-04-15T18:15:03.252Z,1009.47
2018-04-15T18:20:02.996Z,1009.59
2018-04-15T18:25:03.675Z,1009.54
2018-04-15T18:30:03.271Z,1009.6
2018-04-15T18:35:02.912Z,1009.65
2018-04-15T18:40:03.597Z,1009.66
2018-04-15T18:45:03.239Z,1009.7
2018-04-15T18:50:03.392Z,1009.63
2018-04-15T18:55:03.134Z,1009.73
2018-04-15T19:00:02.819Z,1009.83
2018-04-15T19:05:03.480Z,1009.85
2018-04-15T19:10:03.163Z,1009.93
2018-04-15T19:15:02.788Z,1009.88
2018-04-15T19:20:03.374Z,1009.83
2018-04-15T19:25:03.006Z,1009.81
2018-04-15T19:30:03.590Z,1009.86
2018-04-15T19:35:03.222Z,1009.83
2018-04-15T19:40:02.898Z,1009.86
2018-04-15T19:45:03.543Z,1009.84
2018-04-15T19:50:03.212Z,1009.76
2018-04-15T19:55:02.861Z,1009.8
2018-04-15T20:00:03.885Z,1009.77
2018-04-15T20:05:03.885Z,1009.8
2018-04-15T20:10:02.780Z,1009.82
2018-04-15T20:15:03.446Z,1009.73
2018-04-15T20:20:03.116Z,1009.68
2018-04-15T20:25:03.657Z,1009.69
2018-04-15T20:30:03.328Z,1009.65
2018-04-15T20:35:03.097Z,1009.67
2018-04-15T20:40:02.782Z,1009.67
2018-04-15T20:45:03.362Z,1009.73
2018-04-15T20:50:02.973Z,1009.75
2018-04-15T20:55:03.635Z,1009.83
2018-04-15T21:00:03.424Z,1009.93
2018-04-15T21:05:03.048Z,1009.92
2018-04-15T21:10:02.759Z,1009.92
2018-04-15T21:15:03.485Z,1009.97
2018-04-15T21:20:03.164Z,1009.98
2018-04-15T21:25:02.802Z,1009.96
2018-04-15T21:30:03.496Z,1009.89
2018-04-15T21:35:03.087Z,1009.92
2018-04-15T21:40:02.725Z,1009.88
2018-04-15T21:45:03.330Z,1009.97
2018-04-15T21:50:02.969Z,1009.99
2018-04-15T21:55:03.609Z,1009.91
2018-04-15T22:00:03.201Z,1009.93
2018-04-15T22:05:02.762Z,1009.91
2018-04-15T22:10:03.442Z,1009.93
2018-04-15T22:15:03.136Z,1009.94
2018-04-15T22:20:02.726Z,1009.97
2018-04-15T22:25:03.433Z,1009.99
2018-04-15T22:30:03.091Z,1009.99
2018-04-15T22:35:03.633Z,1010
2018-04-15T22:40:03.248Z,1010
2018-04-15T22:45:02.916Z,1010.05
2018-04-15T22:50:03.523Z,1010.01
2018-04-15T22:55:03.050Z,1009.91
2018-04-15T23:00:06.137Z,1009.92
2018-04-15T23:05:03.393Z,1009.83
2018-04-15T23:10:03.244Z,1009.82
2018-04-15T23:15:02.822Z,1009.82
2018-04-15T23:20:03.445Z,1009.81
2018-04-15T23:25:03.131Z,1009.81
2018-04-15T23:30:02.812Z,1009.78
2018-04-15T23:35:03.367Z,1009.81
2018-04-15T23:40:03.049Z,1009.79
2018-04-15T23:45:03.646Z,1009.81
2018-04-15T23:50:03.212Z,1009.78
2018-04-15T23:55:02.845Z,1009.78
